sensor_id;sensor_type;location;lat;lon;timestamp;temperature;humidity
4635;DHT22;2330;48.158;11.816;2022-11-15T00:00:56;4.60;98.50
4635;DHT22;2330;48.158;11.816;2022-11-15T00:03:25;4.60;98.50
4635;DHT22;2330;48.158;11.816;2022-11-15T00:05:52;4.60;98.50
4635;DHT22;2330;48.158;11.816;2022-11-15T00:08:18;4.60;98.50
4635;DHT22;2330;48.158;11.816;2022-11-15T00:10:56;4.60;98.50
4635;DHT22;2330;48.158;11.816;2022-11-15T00:13:23;4.60;98.50
4635;DHT22;2330;48.158;11.816;2022-11-15T00:15:50;4.50;98.50
4635;DHT22;2330;48.158;11.816;2022-11-15T00:18:17;4.50;98.50
4635;DHT22;2330;48.158;11.816;2022-11-15T00:20:44;4.40;98.50
4635;DHT22;2330;48.158;11.816;2022-11-15T00:23:11;4.30;98.50
4635;DHT22;2330;48.158;11.816;2022-11-15T00:25:38;4.30;98.50
4635;DHT22;2330;48.158;11.816;2022-11-15T00:28:04;4.20;98.50
4635;DHT22;2330;48.158;11.816;2022-11-15T00:30:31;4.10;98.50
4635;DHT22;2330;48.158;11.816;2022-11-15T00:33:02;4.10;98.50
4635;DHT22;2330;48.158;11.816;2022-11-15T00:35:32;4.10;98.50
4635;DHT22;2330;48.158;11.816;2022-11-15T00:38:00;4.10;98.50
4635;DHT22;2330;48.158;11.816;2022-11-15T00:40:27;4.10;98.50
4635;DHT22;2330;48.158;11.816;2022-11-15T00:42:54;4.00;98.50
4635;DHT22;2330;48.158;11.816;2022-11-15T00:45:21;4.00;98.50
4635;DHT22;2330;48.158;11.816;2022-11-15T00:47:48;3.90;98.50
4635;DHT22;2330;48.158;11.816;2022-11-15T00:50:15;3.90;98.50
4635;DHT22;2330;48.158;11.816;2022-11-15T00:52:42;3.90;98.50
4635;DHT22;2330;48.158;11.816;2022-11-15T00:55:18;3.90;98.50
4635;DHT22;2330;48.158;11.816;2022-11-15T00:57:46;3.90;98.50
4635;DHT22;2330;48.158;11.816;2022-11-15T01:00:13;3.80;98.50
4635;DHT22;2330;48.158;11.816;2022-11-15T01:02:39;3.80;98.50
4635;DHT22;2330;48.158;11.816;2022-11-15T01:05:06;3.70;98.50
4635;DHT22;2330;48.158;11.816;2022-11-15T01:07:33;3.60;98.50
4635;DHT22;2330;48.158;11.816;2022-11-15T01:10:00;3.60;98.50
4635;DHT22;2330;48.158;11.816;2022-11-15T01:12:27;3.50;98.50
4635;DHT22;2330;48.158;11.816;2022-11-15T01:14:54;3.50;98.50
4635;DHT22;2330;48.158;11.816;2022-11-15T01:17:21;3.40;98.50
4635;DHT22;2330;48.158;11.816;2022-11-15T01:19:47;3.30;98.50
4635;DHT22;2330;48.158;11.816;2022-11-15T01:22:14;3.10;98.50
4635;DHT22;2330;48.158;11.816;2022-11-15T01:24:41;3.00;98.50
4635;DHT22;2330;48.158;11.816;2022-11-15T01:27:08;3.00;98.50
4635;DHT22;2330;48.158;11.816;2022-11-15T01:29:35;2.90;98.50
4635;DHT22;2330;48.158;11.816;2022-11-15T01:32:02;2.80;98.50
4635;DHT22;2330;48.158;11.816;2022-11-15T01:34:29;2.70;98.50
4635;DHT22;2330;48.158;11.816;2022-11-15T01:36:55;2.80;98.50
4635;DHT22;2330;48.158;11.816;2022-11-15T01:39:22;2.80;98.50
4635;DHT22;2330;48.158;11.816;2022-11-15T01:41:49;2.80;98.50
4635;DHT22;2330;48.158;11.816;2022-11-15T01:46:59;2.90;98.50
4635;DHT22;2330;48.158;11.816;2022-11-15T01:49:30;2.90;98.50
4635;DHT22;2330;48.158;11.816;2022-11-15T01:52:02;2.90;98.50
4635;DHT22;2330;48.158;11.816;2022-11-15T01:54:30;3.00;98.50
4635;DHT22;2330;48.158;11.816;2022-11-15T01:57:01;3.00;98.50
4635;DHT22;2330;48.158;11.816;2022-11-15T01:59:30;2.90;98.50
4635;DHT22;2330;48.158;11.816;2022-11-15T02:01:57;2.90;98.50
4635;DHT22;2330;48.158;11.816;2022-11-15T02:04:29;2.90;98.50
4635;DHT22;2330;48.158;11.816;2022-11-15T02:06:57;2.80;98.50
4635;DHT22;2330;48.158;11.816;2022-11-15T02:09:25;2.80;98.50
4635;DHT22;2330;48.158;11.816;2022-11-15T02:11:53;2.70;98.50
4635;DHT22;2330;48.158;11.816;2022-11-15T02:14:21;2.60;98.50
4635;DHT22;2330;48.158;11.816;2022-11-15T02:16:54;2.50;98.50
4635;DHT22;2330;48.158;11.816;2022-11-15T02:25:03;2.30;98.50
4635;DHT22;2330;48.158;11.816;2022-11-15T02:38:27;2.10;98.50
4635;DHT22;2330;48.158;11.816;2022-11-15T02:41:02;2.10;98.50
4635;DHT22;2330;48.158;11.816;2022-11-15T02:43:40;2.20;98.50
4635;DHT22;2330;48.158;11.816;2022-11-15T02:49:14;2.20;98.50
4635;DHT22;2330;48.158;11.816;2022-11-15T02:51:44;2.30;98.50
4635;DHT22;2330;48.158;11.816;2022-11-15T02:54:20;2.30;98.50
4635;DHT22;2330;48.158;11.816;2022-11-15T02:56:49;2.40;98.50
4635;DHT22;2330;48.158;11.816;2022-11-15T03:02:05;2.50;98.50
4635;DHT22;2330;48.158;11.816;2022-11-15T03:04:52;2.50;98.50
4635;DHT22;2330;48.158;11.816;2022-11-15T03:07:36;2.50;98.50
4635;DHT22;2330;48.158;11.816;2022-11-15T03:10:09;2.50;98.50
4635;DHT22;2330;48.158;11.816;2022-11-15T03:13:02;2.60;98.50
4635;DHT22;2330;48.158;11.816;2022-11-15T03:15:38;2.60;98.50
4635;DHT22;2330;48.158;11.816;2022-11-15T03:18:45;2.60;98.50
4635;DHT22;2330;48.158;11.816;2022-11-15T03:21:07;2.60;98.50
4635;DHT22;2330;48.158;11.816;2022-11-15T03:23:36;2.60;98.50
4635;DHT22;2330;48.158;11.816;2022-11-15T03:26:06;2.70;98.50
4635;DHT22;2330;48.158;11.816;2022-11-15T03:28:40;2.60;98.50
4635;DHT22;2330;48.158;11.816;2022-11-15T03:31:09;2.60;98.50
4635;DHT22;2330;48.158;11.816;2022-11-15T03:33:57;2.30;98.50
4635;DHT22;2330;48.158;11.816;2022-11-15T03:36:26;2.00;98.50
4635;DHT22;2330;48.158;11.816;2022-11-15T03:38:55;2.00;98.50
4635;DHT22;2330;48.158;11.816;2022-11-15T03:41:30;2.00;98.50
4635;DHT22;2330;48.158;11.816;2022-11-15T03:46:54;2.20;98.50
4635;DHT22;2330;48.158;11.816;2022-11-15T03:49:27;2.00;98.50
4635;DHT22;2330;48.158;11.816;2022-11-15T03:51:59;1.90;98.50
4635;DHT22;2330;48.158;11.816;2022-11-15T03:54:26;1.90;98.50
4635;DHT22;2330;48.158;11.816;2022-11-15T03:56:53;2.00;98.50
4635;DHT22;2330;48.158;11.816;2022-11-15T03:59:20;2.00;98.50
4635;DHT22;2330;48.158;11.816;2022-11-15T04:01:47;2.10;98.50
4635;DHT22;2330;48.158;11.816;2022-11-15T04:04:13;2.10;98.50
4635;DHT22;2330;48.158;11.816;2022-11-15T04:06:40;2.10;98.50
4635;DHT22;2330;48.158;11.816;2022-11-15T04:09:07;2.10;98.50
4635;DHT22;2330;48.158;11.816;2022-11-15T04:11:33;2.20;98.50
4635;DHT22;2330;48.158;11.816;2022-11-15T04:14:00;2.20;98.50
4635;DHT22;2330;48.158;11.816;2022-11-15T04:16:27;2.20;98.50
4635;DHT22;2330;48.158;11.816;2022-11-15T04:18:53;2.10;98.50
4635;DHT22;2330;48.158;11.816;2022-11-15T04:21:39;2.10;98.50
4635;DHT22;2330;48.158;11.816;2022-11-15T04:24:24;2.10;98.50
4635;DHT22;2330;48.158;11.816;2022-11-15T04:26:51;2.20;98.50
4635;DHT22;2330;48.158;11.816;2022-11-15T04:29:18;2.20;98.50
4635;DHT22;2330;48.158;11.816;2022-11-15T04:32:04;2.20;98.50
4635;DHT22;2330;48.158;11.816;2022-11-15T04:34:32;2.20;98.50
4635;DHT22;2330;48.158;11.816;2022-11-15T04:36:59;2.20;98.50
4635;DHT22;2330;48.158;11.816;2022-11-15T04:39:39;2.10;98.50
4635;DHT22;2330;48.158;11.816;2022-11-15T04:42:06;2.10;98.50
4635;DHT22;2330;48.158;11.816;2022-11-15T04:44:32;2.20;98.50
4635;DHT22;2330;48.158;11.816;2022-11-15T04:46:59;2.20;98.50
4635;DHT22;2330;48.158;11.816;2022-11-15T04:49:26;2.30;98.50
4635;DHT22;2330;48.158;11.816;2022-11-15T04:51:53;2.40;98.50
4635;DHT22;2330;48.158;11.816;2022-11-15T04:54:19;2.60;98.50
4635;DHT22;2330;48.158;11.816;2022-11-15T04:56:46;2.80;98.50
4635;DHT22;2330;48.158;11.816;2022-11-15T04:59:13;3.00;98.50
4635;DHT22;2330;48.158;11.816;2022-11-15T05:01:39;3.00;98.50
4635;DHT22;2330;48.158;11.816;2022-11-15T05:04:10;3.00;98.50
4635;DHT22;2330;48.158;11.816;2022-11-15T05:06:50;3.00;98.50
4635;DHT22;2330;48.158;11.816;2022-11-15T05:09:19;2.90;98.50
4635;DHT22;2330;48.158;11.816;2022-11-15T05:11:46;2.80;98.50
4635;DHT22;2330;48.158;11.816;2022-11-15T05:14:13;2.80;98.50
4635;DHT22;2330;48.158;11.816;2022-11-15T05:16:40;2.70;98.50
4635;DHT22;2330;48.158;11.816;2022-11-15T05:19:07;2.70;98.50
4635;DHT22;2330;48.158;11.816;2022-11-15T05:21:34;2.60;98.50
4635;DHT22;2330;48.158;11.816;2022-11-15T05:24:02;2.60;98.50
4635;DHT22;2330;48.158;11.816;2022-11-15T05:26:29;2.70;98.50
4635;DHT22;2330;48.158;11.816;2022-11-15T05:28:57;2.60;98.50
4635;DHT22;2330;48.158;11.816;2022-11-15T05:31:24;2.60;98.50
4635;DHT22;2330;48.158;11.816;2022-11-15T05:33:52;2.60;98.50
4635;DHT22;2330;48.158;11.816;2022-11-15T05:36:33;2.60;98.50
4635;DHT22;2330;48.158;11.816;2022-11-15T05:39:01;2.60;98.50
4635;DHT22;2330;48.158;11.816;2022-11-15T05:41:48;2.50;98.50
4635;DHT22;2330;48.158;11.816;2022-11-15T05:44:20;2.60;98.50
4635;DHT22;2330;48.158;11.816;2022-11-15T05:46:48;2.50;98.50
4635;DHT22;2330;48.158;11.816;2022-11-15T05:49:18;2.40;98.50
4635;DHT22;2330;48.158;11.816;2022-11-15T05:51:47;2.40;98.50
4635;DHT22;2330;48.158;11.816;2022-11-15T05:54:16;2.30;98.50
4635;DHT22;2330;48.158;11.816;2022-11-15T05:56:44;2.20;98.50
4635;DHT22;2330;48.158;11.816;2022-11-15T05:59:11;2.10;98.50
4635;DHT22;2330;48.158;11.816;2022-11-15T06:01:38;2.00;98.50
4635;DHT22;2330;48.158;11.816;2022-11-15T06:04:06;2.10;98.50
4635;DHT22;2330;48.158;11.816;2022-11-15T06:06:33;2.10;98.50
4635;DHT22;2330;48.158;11.816;2022-11-15T06:08:59;2.00;98.50
4635;DHT22;2330;48.158;11.816;2022-11-15T06:11:26;2.10;98.50
4635;DHT22;2330;48.158;11.816;2022-11-15T06:13:53;2.30;98.50
4635;DHT22;2330;48.158;11.816;2022-11-15T06:16:19;2.40;98.50
4635;DHT22;2330;48.158;11.816;2022-11-15T06:18:46;2.40;98.50
4635;DHT22;2330;48.158;11.816;2022-11-15T06:21:13;2.40;98.50
4635;DHT22;2330;48.158;11.816;2022-11-15T06:23:39;2.50;98.50
4635;DHT22;2330;48.158;11.816;2022-11-15T06:26:06;2.40;98.50
4635;DHT22;2330;48.158;11.816;2022-11-15T06:28:33;2.20;98.50
4635;DHT22;2330;48.158;11.816;2022-11-15T06:31:09;2.20;98.50
4635;DHT22;2330;48.158;11.816;2022-11-15T06:33:35;2.10;98.50
4635;DHT22;2330;48.158;11.816;2022-11-15T06:36:04;2.20;98.50
4635;DHT22;2330;48.158;11.816;2022-11-15T06:38:31;2.20;98.50
4635;DHT22;2330;48.158;11.816;2022-11-15T06:41:07;2.20;98.50
4635;DHT22;2330;48.158;11.816;2022-11-15T06:43:34;2.30;98.50
4635;DHT22;2330;48.158;11.816;2022-11-15T06:46:02;2.30;98.50
4635;DHT22;2330;48.158;11.816;2022-11-15T06:48:30;2.30;98.50
4635;DHT22;2330;48.158;11.816;2022-11-15T06:50:58;2.20;98.50
4635;DHT22;2330;48.158;11.816;2022-11-15T06:53:26;2.30;98.50
4635;DHT22;2330;48.158;11.816;2022-11-15T06:55:53;2.30;98.50
4635;DHT22;2330;48.158;11.816;2022-11-15T06:58:21;2.40;98.50
4635;DHT22;2330;48.158;11.816;2022-11-15T07:00:48;2.50;98.50
4635;DHT22;2330;48.158;11.816;2022-11-15T07:03:15;2.50;98.50
4635;DHT22;2330;48.158;11.816;2022-11-15T07:05:41;2.60;98.50
4635;DHT22;2330;48.158;11.816;2022-11-15T07:08:08;2.80;98.50
4635;DHT22;2330;48.158;11.816;2022-11-15T07:10:36;2.90;98.50
4635;DHT22;2330;48.158;11.816;2022-11-15T07:13:02;3.10;98.50
4635;DHT22;2330;48.158;11.816;2022-11-15T07:15:29;3.20;98.50
4635;DHT22;2330;48.158;11.816;2022-11-15T07:17:56;3.40;98.50
4635;DHT22;2330;48.158;11.816;2022-11-15T07:20:26;3.60;98.50
4635;DHT22;2330;48.158;11.816;2022-11-15T07:23:03;3.70;98.50
4635;DHT22;2330;48.158;11.816;2022-11-15T07:25:30;3.70;98.50
4635;DHT22;2330;48.158;11.816;2022-11-15T07:27:58;3.60;98.50
4635;DHT22;2330;48.158;11.816;2022-11-15T07:30:26;3.70;98.50
4635;DHT22;2330;48.158;11.816;2022-11-15T07:32:58;4.10;98.50
4635;DHT22;2330;48.158;11.816;2022-11-15T07:35:26;4.40;98.50
4635;DHT22;2330;48.158;11.816;2022-11-15T07:37:58;4.60;98.50
4635;DHT22;2330;48.158;11.816;2022-11-15T07:40:26;4.60;98.50
4635;DHT22;2330;48.158;11.816;2022-11-15T07:42:59;4.70;98.50
4635;DHT22;2330;48.158;11.816;2022-11-15T07:45:26;4.80;98.50
4635;DHT22;2330;48.158;11.816;2022-11-15T07:47:54;4.90;98.50
4635;DHT22;2330;48.158;11.816;2022-11-15T07:50:23;5.10;98.50
4635;DHT22;2330;48.158;11.816;2022-11-15T07:52:54;5.20;98.50
4635;DHT22;2330;48.158;11.816;2022-11-15T07:55:22;5.30;98.50
4635;DHT22;2330;48.158;11.816;2022-11-15T07:57:49;5.50;98.50
4635;DHT22;2330;48.158;11.816;2022-11-15T08:00:17;5.80;98.50
4635;DHT22;2330;48.158;11.816;2022-11-15T08:02:44;6.20;98.50
4635;DHT22;2330;48.158;11.816;2022-11-15T08:05:11;6.50;98.50
4635;DHT22;2330;48.158;11.816;2022-11-15T08:07:38;6.70;98.50
4635;DHT22;2330;48.158;11.816;2022-11-15T08:10:07;6.80;98.50
4635;DHT22;2330;48.158;11.816;2022-11-15T08:12:34;7.00;98.50
4635;DHT22;2330;48.158;11.816;2022-11-15T08:15:01;7.20;98.50
4635;DHT22;2330;48.158;11.816;2022-11-15T08:17:27;7.30;98.50
4635;DHT22;2330;48.158;11.816;2022-11-15T08:19:58;7.40;98.50
4635;DHT22;2330;48.158;11.816;2022-11-15T08:22:25;7.50;98.50
4635;DHT22;2330;48.158;11.816;2022-11-15T08:24:51;7.70;98.50
4635;DHT22;2330;48.158;11.816;2022-11-15T08:27:18;7.80;98.50
4635;DHT22;2330;48.158;11.816;2022-11-15T08:29:45;7.90;98.50
4635;DHT22;2330;48.158;11.816;2022-11-15T08:32:12;7.80;98.50
4635;DHT22;2330;48.158;11.816;2022-11-15T08:34:39;7.70;98.50
4635;DHT22;2330;48.158;11.816;2022-11-15T08:37:06;7.60;98.50
4635;DHT22;2330;48.158;11.816;2022-11-15T08:39:32;7.60;98.50
4635;DHT22;2330;48.158;11.816;2022-11-15T08:41:59;7.70;98.50
4635;DHT22;2330;48.158;11.816;2022-11-15T08:44:26;8.00;98.50
4635;DHT22;2330;48.158;11.816;2022-11-15T08:46:53;8.30;98.50
4635;DHT22;2330;48.158;11.816;2022-11-15T08:49:19;8.40;98.50
4635;DHT22;2330;48.158;11.816;2022-11-15T08:51:46;8.60;98.50
4635;DHT22;2330;48.158;11.816;2022-11-15T08:54:13;8.80;98.50
4635;DHT22;2330;48.158;11.816;2022-11-15T08:56:40;8.90;98.50
4635;DHT22;2330;48.158;11.816;2022-11-15T08:59:06;8.90;98.50
4635;DHT22;2330;48.158;11.816;2022-11-15T09:01:33;8.70;98.50
4635;DHT22;2330;48.158;11.816;2022-11-15T09:04:00;8.80;98.50
4635;DHT22;2330;48.158;11.816;2022-11-15T09:06:27;8.70;98.50
4635;DHT22;2330;48.158;11.816;2022-11-15T09:08:53;8.70;98.50
4635;DHT22;2330;48.158;11.816;2022-11-15T09:11:20;8.70;98.50
4635;DHT22;2330;48.158;11.816;2022-11-15T09:13:49;8.80;98.50
4635;DHT22;2330;48.158;11.816;2022-11-15T09:16:16;8.90;98.50
4635;DHT22;2330;48.158;11.816;2022-11-15T09:18:42;9.10;98.50
4635;DHT22;2330;48.158;11.816;2022-11-15T09:21:09;9.30;98.50
4635;DHT22;2330;48.158;11.816;2022-11-15T09:23:36;9.10;98.50
4635;DHT22;2330;48.158;11.816;2022-11-15T09:26:04;9.10;98.50
4635;DHT22;2330;48.158;11.816;2022-11-15T09:28:32;9.30;98.50
4635;DHT22;2330;48.158;11.816;2022-11-15T09:31:02;9.40;98.50
4635;DHT22;2330;48.158;11.816;2022-11-15T09:33:30;9.40;98.50
4635;DHT22;2330;48.158;11.816;2022-11-15T09:36:02;9.50;98.50
4635;DHT22;2330;48.158;11.816;2022-11-15T09:38:29;9.60;98.50
4635;DHT22;2330;48.158;11.816;2022-11-15T09:44:12;9.60;98.50
4635;DHT22;2330;48.158;11.816;2022-11-15T09:49:58;9.90;98.50
4635;DHT22;2330;48.158;11.816;2022-11-15T09:52:25;10.00;98.50
4635;DHT22;2330;48.158;11.816;2022-11-15T09:54:53;10.00;98.50
4635;DHT22;2330;48.158;11.816;2022-11-15T09:57:33;10.00;98.50
4635;DHT22;2330;48.158;11.816;2022-11-15T10:03:08;10.10;98.50
4635;DHT22;2330;48.158;11.816;2022-11-15T10:05:40;10.30;98.50
4635;DHT22;2330;48.158;11.816;2022-11-15T10:08:22;10.40;98.50
4635;DHT22;2330;48.158;11.816;2022-11-15T10:11:03;10.50;98.00
4635;DHT22;2330;48.158;11.816;2022-11-15T10:13:52;10.60;98.50
4635;DHT22;2330;48.158;11.816;2022-11-15T10:24:19;11.00;97.20
4635;DHT22;2330;48.158;11.816;2022-11-15T10:26:48;11.00;95.50
4635;DHT22;2330;48.158;11.816;2022-11-15T10:29:19;11.10;94.40
4635;DHT22;2330;48.158;11.816;2022-11-15T10:31:52;11.10;94.60
4635;DHT22;2330;48.158;11.816;2022-11-15T10:34:22;11.30;96.10
4635;DHT22;2330;48.158;11.816;2022-11-15T10:36:59;11.40;95.10
4635;DHT22;2330;48.158;11.816;2022-11-15T10:39:26;11.50;95.00
4635;DHT22;2330;48.158;11.816;2022-11-15T10:41:54;11.70;95.90
4635;DHT22;2330;48.158;11.816;2022-11-15T10:44:24;11.90;96.20
4635;DHT22;2330;48.158;11.816;2022-11-15T10:49:21;12.20;95.90
4635;DHT22;2330;48.158;11.816;2022-11-15T10:54:27;12.50;97.70
4635;DHT22;2330;48.158;11.816;2022-11-15T10:56:57;12.70;96.70
4635;DHT22;2330;48.158;11.816;2022-11-15T10:59:28;12.80;96.50
4635;DHT22;2330;48.158;11.816;2022-11-15T11:02:01;12.90;93.20
4635;DHT22;2330;48.158;11.816;2022-11-15T11:04:28;12.90;92.80
4635;DHT22;2330;48.158;11.816;2022-11-15T11:06:59;13.10;93.70
4635;DHT22;2330;48.158;11.816;2022-11-15T11:09:39;13.40;93.90
4635;DHT22;2330;48.158;11.816;2022-11-15T11:12:12;13.00;90.40
4635;DHT22;2330;48.158;11.816;2022-11-15T11:14:39;13.20;92.20
4635;DHT22;2330;48.158;11.816;2022-11-15T11:20:28;13.20;90.30
4635;DHT22;2330;48.158;11.816;2022-11-15T11:28:39;13.80;88.80
4635;DHT22;2330;48.158;11.816;2022-11-15T11:31:27;13.90;88.10
4635;DHT22;2330;48.158;11.816;2022-11-15T11:45:28;14.50;87.60
4635;DHT22;2330;48.158;11.816;2022-11-15T11:50:42;15.00;86.20
4635;DHT22;2330;48.158;11.816;2022-11-15T11:53:12;14.90;85.10
4635;DHT22;2330;48.158;11.816;2022-11-15T11:55:49;14.90;84.70
4635;DHT22;2330;48.158;11.816;2022-11-15T11:58:22;14.80;85.70
4635;DHT22;2330;48.158;11.816;2022-11-15T12:03:45;14.50;83.40
4635;DHT22;2330;48.158;11.816;2022-11-15T12:09:56;14.40;86.30
4635;DHT22;2330;48.158;11.816;2022-11-15T12:17:37;14.50;84.80
4635;DHT22;2330;48.158;11.816;2022-11-15T12:20:16;14.40;84.30
4635;DHT22;2330;48.158;11.816;2022-11-15T12:30:56;15.20;83.30
4635;DHT22;2330;48.158;11.816;2022-11-15T12:33:37;15.40;85.00
4635;DHT22;2330;48.158;11.816;2022-11-15T12:41:22;15.00;84.40
4635;DHT22;2330;48.158;11.816;2022-11-15T12:43:49;15.20;83.90
4635;DHT22;2330;48.158;11.816;2022-11-15T12:48:53;15.30;84.40
4635;DHT22;2330;48.158;11.816;2022-11-15T12:51:23;15.50;84.80
4635;DHT22;2330;48.158;11.816;2022-11-15T13:02:36;15.10;84.60
4635;DHT22;2330;48.158;11.816;2022-11-15T13:13:07;15.40;85.70
4635;DHT22;2330;48.158;11.816;2022-11-15T13:15:51;15.50;85.30
4635;DHT22;2330;48.158;11.816;2022-11-15T13:20:58;15.80;84.10
4635;DHT22;2330;48.158;11.816;2022-11-15T13:23:28;15.70;83.80
4635;DHT22;2330;48.158;11.816;2022-11-15T13:26:12;15.30;84.90
4635;DHT22;2330;48.158;11.816;2022-11-15T13:31:35;15.50;85.60
4635;DHT22;2330;48.158;11.816;2022-11-15T13:34:16;15.40;85.60
4635;DHT22;2330;48.158;11.816;2022-11-15T13:37:03;14.90;85.70
4635;DHT22;2330;48.158;11.816;2022-11-15T13:39:32;14.80;86.60
4635;DHT22;2330;48.158;11.816;2022-11-15T13:41:59;14.90;87.10
4635;DHT22;2330;48.158;11.816;2022-11-15T13:44:33;15.10;87.50
4635;DHT22;2330;48.158;11.816;2022-11-15T13:47:06;15.10;87.60
4635;DHT22;2330;48.158;11.816;2022-11-15T13:49:34;14.80;86.20
4635;DHT22;2330;48.158;11.816;2022-11-15T13:52:04;14.50;87.00
4635;DHT22;2330;48.158;11.816;2022-11-15T13:54:48;14.50;87.40
4635;DHT22;2330;48.158;11.816;2022-11-15T13:57:23;14.60;87.90
4635;DHT22;2330;48.158;11.816;2022-11-15T14:00:40;14.50;87.40
4635;DHT22;2330;48.158;11.816;2022-11-15T14:02:46;14.40;87.40
4635;DHT22;2330;48.158;11.816;2022-11-15T14:05:21;14.40;87.90
4635;DHT22;2330;48.158;11.816;2022-11-15T14:10:35;14.20;88.70
4635;DHT22;2330;48.158;11.816;2022-11-15T14:13:04;13.90;89.00
4635;DHT22;2330;48.158;11.816;2022-11-15T14:15:36;13.90;89.80
4635;DHT22;2330;48.158;11.816;2022-11-15T14:18:05;13.90;90.20
4635;DHT22;2330;48.158;11.816;2022-11-15T14:20:35;13.80;91.00
4635;DHT22;2330;48.158;11.816;2022-11-15T14:23:26;13.70;91.50
4635;DHT22;2330;48.158;11.816;2022-11-15T14:25:58;13.50;91.90
4635;DHT22;2330;48.158;11.816;2022-11-15T14:30:54;13.20;93.40
4635;DHT22;2330;48.158;11.816;2022-11-15T14:33:24;13.20;94.10
4635;DHT22;2330;48.158;11.816;2022-11-15T14:35:52;13.30;94.00
4635;DHT22;2330;48.158;11.816;2022-11-15T14:38:19;13.40;94.20
4635;DHT22;2330;48.158;11.816;2022-11-15T14:40:46;13.50;93.70
4635;DHT22;2330;48.158;11.816;2022-11-15T14:43:13;13.50;93.70
4635;DHT22;2330;48.158;11.816;2022-11-15T14:45:40;13.40;94.40
4635;DHT22;2330;48.158;11.816;2022-11-15T14:48:07;13.20;95.30
4635;DHT22;2330;48.158;11.816;2022-11-15T14:50:34;12.90;96.30
4635;DHT22;2330;48.158;11.816;2022-11-15T14:53:02;12.70;97.00
4635;DHT22;2330;48.158;11.816;2022-11-15T14:55:34;12.50;97.50
4635;DHT22;2330;48.158;11.816;2022-11-15T14:58:03;12.30;98.30
4635;DHT22;2330;48.158;11.816;2022-11-15T15:00:31;12.10;98.50
4635;DHT22;2330;48.158;11.816;2022-11-15T15:03:02;11.90;98.50
4635;DHT22;2330;48.158;11.816;2022-11-15T15:05:35;11.70;98.50
4635;DHT22;2330;48.158;11.816;2022-11-15T15:08:02;11.50;98.50
4635;DHT22;2330;48.158;11.816;2022-11-15T15:10:38;11.30;98.50
4635;DHT22;2330;48.158;11.816;2022-11-15T15:13:25;11.10;98.50
4635;DHT22;2330;48.158;11.816;2022-11-15T15:15:52;11.00;98.50
4635;DHT22;2330;48.158;11.816;2022-11-15T15:18:19;10.90;98.50
4635;DHT22;2330;48.158;11.816;2022-11-15T15:20:53;10.70;98.50
4635;DHT22;2330;48.158;11.816;2022-11-15T15:23:20;10.50;98.50
4635;DHT22;2330;48.158;11.816;2022-11-15T15:25:47;10.40;98.50
4635;DHT22;2330;48.158;11.816;2022-11-15T15:28:15;10.30;98.50
4635;DHT22;2330;48.158;11.816;2022-11-15T15:30:42;10.20;98.50
4635;DHT22;2330;48.158;11.816;2022-11-15T15:33:09;10.10;98.50
4635;DHT22;2330;48.158;11.816;2022-11-15T15:35:36;10.00;98.50
4635;DHT22;2330;48.158;11.816;2022-11-15T15:38:03;9.90;98.50
4635;DHT22;2330;48.158;11.816;2022-11-15T15:40:31;9.80;98.50
4635;DHT22;2330;48.158;11.816;2022-11-15T15:42:59;9.70;98.50
4635;DHT22;2330;48.158;11.816;2022-11-15T15:45:26;9.60;98.50
4635;DHT22;2330;48.158;11.816;2022-11-15T15:47:54;9.50;98.50
4635;DHT22;2330;48.158;11.816;2022-11-15T15:50:29;9.40;98.50
4635;DHT22;2330;48.158;11.816;2022-11-15T15:52:58;9.40;98.50
4635;DHT22;2330;48.158;11.816;2022-11-15T15:55:25;9.30;98.50
4635;DHT22;2330;48.158;11.816;2022-11-15T15:57:52;9.20;98.50
4635;DHT22;2330;48.158;11.816;2022-11-15T16:00:21;9.00;98.50
4635;DHT22;2330;48.158;11.816;2022-11-15T16:02:49;8.90;98.50
4635;DHT22;2330;48.158;11.816;2022-11-15T16:05:17;8.80;98.50
4635;DHT22;2330;48.158;11.816;2022-11-15T16:07:44;8.80;98.50
4635;DHT22;2330;48.158;11.816;2022-11-15T16:10:21;8.80;98.50
4635;DHT22;2330;48.158;11.816;2022-11-15T16:12:49;8.80;98.50
4635;DHT22;2330;48.158;11.816;2022-11-15T16:15:16;8.70;98.50
4635;DHT22;2330;48.158;11.816;2022-11-15T16:18:12;8.70;98.50
4635;DHT22;2330;48.158;11.816;2022-11-15T16:20:46;8.50;98.50
4635;DHT22;2330;48.158;11.816;2022-11-15T16:23:17;8.30;98.50
4635;DHT22;2330;48.158;11.816;2022-11-15T16:25:50;8.30;98.50
4635;DHT22;2330;48.158;11.816;2022-11-15T16:28:25;8.30;98.50
4635;DHT22;2330;48.158;11.816;2022-11-15T16:31:00;8.30;98.50
4635;DHT22;2330;48.158;11.816;2022-11-15T16:33:28;8.20;98.50
4635;DHT22;2330;48.158;11.816;2022-11-15T16:35:54;8.20;98.50
4635;DHT22;2330;48.158;11.816;2022-11-15T16:38:21;8.10;98.50
4635;DHT22;2330;48.158;11.816;2022-11-15T16:40:48;8.00;98.50
4635;DHT22;2330;48.158;11.816;2022-11-15T16:43:15;8.00;98.50
4635;DHT22;2330;48.158;11.816;2022-11-15T16:45:42;8.00;98.50
4635;DHT22;2330;48.158;11.816;2022-11-15T16:48:22;7.90;98.50
4635;DHT22;2330;48.158;11.816;2022-11-15T16:50:53;8.00;98.50
4635;DHT22;2330;48.158;11.816;2022-11-15T16:53:20;7.90;98.50
4635;DHT22;2330;48.158;11.816;2022-11-15T16:55:47;7.90;98.50
4635;DHT22;2330;48.158;11.816;2022-11-15T16:58:13;7.90;98.50
4635;DHT22;2330;48.158;11.816;2022-11-15T17:00:40;7.90;98.50
4635;DHT22;2330;48.158;11.816;2022-11-15T17:03:07;7.80;98.50
4635;DHT22;2330;48.158;11.816;2022-11-15T17:05:34;7.80;98.50
4635;DHT22;2330;48.158;11.816;2022-11-15T17:08:00;7.70;98.50
4635;DHT22;2330;48.158;11.816;2022-11-15T17:10:27;7.50;98.50
4635;DHT22;2330;48.158;11.816;2022-11-15T17:12:54;7.50;98.50
4635;DHT22;2330;48.158;11.816;2022-11-15T17:15:21;7.50;98.50
4635;DHT22;2330;48.158;11.816;2022-11-15T17:17:53;7.50;98.50
4635;DHT22;2330;48.158;11.816;2022-11-15T17:20:22;7.50;98.50
4635;DHT22;2330;48.158;11.816;2022-11-15T17:22:50;7.40;98.50
4635;DHT22;2330;48.158;11.816;2022-11-15T17:25:18;7.40;98.50
4635;DHT22;2330;48.158;11.816;2022-11-15T17:27:45;7.50;98.50
4635;DHT22;2330;48.158;11.816;2022-11-15T17:30:13;7.30;98.50
4635;DHT22;2330;48.158;11.816;2022-11-15T17:32:44;7.20;98.50
4635;DHT22;2330;48.158;11.816;2022-11-15T17:35:12;7.20;98.50
4635;DHT22;2330;48.158;11.816;2022-11-15T17:37:41;7.30;98.50
4635;DHT22;2330;48.158;11.816;2022-11-15T17:40:08;7.30;98.50
4635;DHT22;2330;48.158;11.816;2022-11-15T17:42:35;7.30;98.50
4635;DHT22;2330;48.158;11.816;2022-11-15T17:45:02;7.30;98.50
4635;DHT22;2330;48.158;11.816;2022-11-15T17:47:35;7.40;98.50
4635;DHT22;2330;48.158;11.816;2022-11-15T17:50:03;7.40;98.50
4635;DHT22;2330;48.158;11.816;2022-11-15T17:52:30;7.40;98.50
4635;DHT22;2330;48.158;11.816;2022-11-15T17:54:56;7.40;98.50
4635;DHT22;2330;48.158;11.816;2022-11-15T17:57:23;7.40;98.50
4635;DHT22;2330;48.158;11.816;2022-11-15T17:59:50;7.40;98.50
4635;DHT22;2330;48.158;11.816;2022-11-15T18:02:16;7.40;98.50
4635;DHT22;2330;48.158;11.816;2022-11-15T18:04:43;7.50;98.50
4635;DHT22;2330;48.158;11.816;2022-11-15T18:07:10;7.40;98.50
4635;DHT22;2330;48.158;11.816;2022-11-15T18:09:37;7.40;98.50
4635;DHT22;2330;48.158;11.816;2022-11-15T18:12:08;7.30;98.50
4635;DHT22;2330;48.158;11.816;2022-11-15T18:14:35;7.10;98.50
4635;DHT22;2330;48.158;11.816;2022-11-15T18:17:02;6.90;98.50
4635;DHT22;2330;48.158;11.816;2022-11-15T18:19:28;6.90;98.50
4635;DHT22;2330;48.158;11.816;2022-11-15T18:21:55;6.90;98.50